createdAt,value
2019-02-10T00:00:15.655Z,7.56
2019-02-10T00:01:15.643Z,7.60
2019-02-10T00:02:15.627Z,7.72
2019-02-10T00:03:15.632Z,7.67
2019-02-10T00:04:15.624Z,7.69
2019-02-10T00:05:15.594Z,7.66
2019-02-10T00:06:15.587Z,7.71
2019-02-10T00:07:15.582Z,7.71
2019-02-10T00:08:15.584Z,7.69
2019-02-10T00:09:15.555Z,7.74
2019-02-10T00:10:15.545Z,7.71
2019-02-10T00:11:15.537Z,7.69
2019-02-10T00:12:15.524Z,7.62
2019-02-10T00:13:15.549Z,7.63
2019-02-10T00:14:15.502Z,7.62
2019-02-10T00:15:15.498Z,7.62
2019-02-10T00:16:15.481Z,7.63
2019-02-10T00:17:15.470Z,7.67
2019-02-10T00:18:15.987Z,7.69
2019-02-10T00:19:15.462Z,7.69
2019-02-10T00:20:15.445Z,7.71
2019-02-10T00:21:15.431Z,7.66
2019-02-10T00:22:16.622Z,7.72
2019-02-10T00:23:15.407Z,7.71
2019-02-10T00:24:15.409Z,7.71
2019-02-10T00:25:15.386Z,7.69
2019-02-10T00:26:15.377Z,7.66
2019-02-10T00:27:15.365Z,7.71
2019-02-10T00:28:15.355Z,7.71
2019-02-10T00:29:15.363Z,7.63
2019-02-10T00:30:15.334Z,7.66
2019-02-10T00:31:15.323Z,7.77
2019-02-10T00:32:15.311Z,7.71
2019-02-10T00:33:15.343Z,7.74
2019-02-10T00:34:15.300Z,7.66
2019-02-10T00:35:15.286Z,7.78
2019-02-10T00:36:15.274Z,7.74
2019-02-10T00:37:15.262Z,7.74
2019-02-10T00:38:15.245Z,7.69
2019-02-10T00:39:15.246Z,7.66
2019-02-10T00:40:15.224Z,7.74
2019-02-10T00:41:15.210Z,7.78
2019-02-10T00:42:15.204Z,7.67
2019-02-10T00:43:15.190Z,7.74
2019-02-10T00:44:15.192Z,7.77
2019-02-10T00:45:15.176Z,7.69
2019-02-10T00:46:15.160Z,7.71
2019-02-10T00:47:15.159Z,7.78
2019-02-10T00:48:15.170Z,7.66
2019-02-10T00:49:15.143Z,7.74
2019-02-10T00:50:15.117Z,7.72
2019-02-10T00:51:15.111Z,7.74
2019-02-10T00:52:15.122Z,7.67
2019-02-10T00:53:15.090Z,7.74
2019-02-10T00:54:15.098Z,7.69
2019-02-10T00:55:15.065Z,7.67
2019-02-10T00:56:15.056Z,7.71
2019-02-10T00:57:15.049Z,7.67
2019-02-10T00:58:15.033Z,7.63
2019-02-10T00:59:15.036Z,7.67
2019-02-10T01:00:15.028Z,7.62
2019-02-10T01:01:15.006Z,7.56
2019-02-10T01:02:14.994Z,7.55
2019-02-10T01:03:14.980Z,7.60
2019-02-10T01:04:14.982Z,7.58
2019-02-10T01:05:14.958Z,7.47
2019-02-10T01:06:14.954Z,7.55
2019-02-10T01:07:14.943Z,7.47
2019-02-10T01:08:14.927Z,7.42
2019-02-10T01:09:14.915Z,7.47
2019-02-10T01:10:14.917Z,7.45
2019-02-10T01:11:14.897Z,7.40
2019-02-10T01:12:14.888Z,7.44
2019-02-10T01:13:14.874Z,7.49
2019-02-10T01:14:14.865Z,7.37
2019-02-10T01:15:14.869Z,7.31
2019-02-10T01:16:14.841Z,7.29
2019-02-10T01:17:14.831Z,7.32
2019-02-10T01:18:14.827Z,7.22
2019-02-10T01:19:14.811Z,7.16
2019-02-10T01:20:14.814Z,7.09
2019-02-10T01:21:14.787Z,7.07
2019-02-10T01:22:14.780Z,7.12
2019-02-10T01:23:14.772Z,7.05
2019-02-10T01:24:14.765Z,6.99
2019-02-10T01:25:14.760Z,6.90
2019-02-10T01:26:14.733Z,6.84
2019-02-10T01:27:14.738Z,6.83
2019-02-10T01:28:14.716Z,6.84
2019-02-10T01:29:14.708Z,6.69
2019-02-10T01:30:14.704Z,6.77
2019-02-10T01:31:14.679Z,6.83
2019-02-10T01:32:14.667Z,6.76
2019-02-10T01:33:14.657Z,6.66
2019-02-10T01:34:14.650Z,6.65
2019-02-10T01:35:14.647Z,6.68
2019-02-10T01:36:14.625Z,6.68
2019-02-10T01:37:14.615Z,6.62
2019-02-10T01:38:14.604Z,6.62
2019-02-10T01:39:14.596Z,6.58
2019-02-10T01:40:14.593Z,6.61
2019-02-10T01:41:14.572Z,6.61
2019-02-10T01:42:14.562Z,6.59
2019-02-10T01:43:14.552Z,6.53
2019-02-10T01:44:14.541Z,6.48
2019-02-10T01:45:14.539Z,6.38
2019-02-10T01:46:14.523Z,6.36
2019-02-10T01:47:14.511Z,6.46
2019-02-10T01:48:14.498Z,6.38
2019-02-10T01:49:14.490Z,6.44
2019-02-10T01:50:14.490Z,6.32
2019-02-10T01:51:14.466Z,6.46
2019-02-10T01:52:14.470Z,6.41
2019-02-10T01:53:14.445Z,6.33
2019-02-10T01:54:14.450Z,6.38
2019-02-10T01:55:14.433Z,6.33
2019-02-10T01:56:14.413Z,6.29
2019-02-10T01:57:14.406Z,6.28
2019-02-10T01:58:14.398Z,6.29
2019-02-10T01:59:14.389Z,6.26
2019-02-10T02:00:14.395Z,6.28
2019-02-10T02:01:14.358Z,6.21
2019-02-10T02:02:14.355Z,6.14
2019-02-10T02:03:14.338Z,6.16
2019-02-10T02:04:14.342Z,6.18
2019-02-10T02:05:14.324Z,6.14
2019-02-10T02:06:14.302Z,6.19
2019-02-10T02:07:14.298Z,6.11
2019-02-10T02:08:14.288Z,6.14
2019-02-10T02:09:14.280Z,6.06
2019-02-10T02:10:14.274Z,6.09
2019-02-10T02:11:14.254Z,6.04
2019-02-10T02:12:14.242Z,6.01
2019-02-10T02:13:14.999Z,6.01
2019-02-10T02:14:14.274Z,6.00
2019-02-10T02:15:14.219Z,6.03
2019-02-10T02:16:14.199Z,6.03
2019-02-10T02:17:14.192Z,6.01
2019-02-10T02:18:14.179Z,6.03
2019-02-10T02:19:14.177Z,5.93
2019-02-10T02:20:14.172Z,5.92
2019-02-10T02:21:14.155Z,5.96
2019-02-10T02:22:14.138Z,5.95
2019-02-10T02:23:14.129Z,5.95
2019-02-10T02:24:14.115Z,5.92
2019-02-10T02:25:14.118Z,5.93
2019-02-10T02:26:14.110Z,5.98
2019-02-10T02:27:14.086Z,6.00
2019-02-10T02:28:14.075Z,6.01
2019-02-10T02:29:14.062Z,6.03
2019-02-10T02:30:14.066Z,6.00
2019-02-10T02:31:14.043Z,5.98
2019-02-10T02:32:14.032Z,5.96
2019-02-10T02:33:14.033Z,5.96
2019-02-10T02:34:14.017Z,6.01
2019-02-10T02:35:14.012Z,5.93
2019-02-10T02:36:13.992Z,5.96
2019-02-10T02:37:13.981Z,6.01
2019-02-10T02:38:13.975Z,6.00
2019-02-10T02:39:13.957Z,6.06
2019-02-10T02:40:13.956Z,6.03
2019-02-10T02:41:13.934Z,5.96
2019-02-10T02:42:13.924Z,6.00
2019-02-10T02:43:13.919Z,6.11
2019-02-10T02:44:13.907Z,6.11
2019-02-10T02:45:13.913Z,6.09
2019-02-10T02:46:13.887Z,6.03
2019-02-10T02:47:13.874Z,6.00
2019-02-10T02:48:13.879Z,6.01
2019-02-10T02:49:13.866Z,6.00
2019-02-10T02:50:13.859Z,5.98
2019-02-10T02:51:13.829Z,5.92
2019-02-10T02:52:13.822Z,6.01
2019-02-10T02:53:13.808Z,5.98
2019-02-10T02:54:13.799Z,5.98
2019-02-10T02:55:13.802Z,5.88
2019-02-10T02:56:13.778Z,5.96
2019-02-10T02:57:13.785Z,5.95
2019-02-10T02:58:13.758Z,5.95
2019-02-10T02:59:13.750Z,5.93
2019-02-10T03:00:13.747Z,6.03
2019-02-10T03:01:13.723Z,6.03
2019-02-10T03:02:13.715Z,6.01
2019-02-10T03:03:13.707Z,6.00
2019-02-10T03:04:13.698Z,6.00
2019-02-10T03:05:13.692Z,5.98
2019-02-10T03:06:13.675Z,5.95
2019-02-10T03:07:18.008Z,5.98
2019-02-10T03:08:13.650Z,5.93
2019-02-10T03:09:13.640Z,5.98
2019-02-10T03:10:13.641Z,6.00
2019-02-10T03:11:13.619Z,5.96
2019-02-10T03:12:13.608Z,5.96
2019-02-10T03:13:13.599Z,6.03
2019-02-10T03:14:13.589Z,5.95
2019-02-10T03:15:13.608Z,5.96
2019-02-10T03:16:13.566Z,5.95
2019-02-10T03:17:13.557Z,5.88
2019-02-10T03:18:13.550Z,5.98
2019-02-10T03:19:13.535Z,5.95
2019-02-10T03:20:13.535Z,5.96
2019-02-10T03:21:13.514Z,6.01
2019-02-10T03:22:13.502Z,5.89
2019-02-10T03:23:13.493Z,5.96
2019-02-10T03:24:13.484Z,5.88
2019-02-10T03:25:13.484Z,5.82
2019-02-10T03:26:13.462Z,5.82
2019-02-10T03:27:13.453Z,5.83
2019-02-10T03:28:13.445Z,5.85
2019-02-10T03:29:13.430Z,5.85
2019-02-10T03:30:13.431Z,5.82
2019-02-10T03:31:13.415Z,5.88
2019-02-10T03:32:13.412Z,5.91
2019-02-10T03:33:13.391Z,5.91
2019-02-10T03:34:13.380Z,5.96
2019-02-10T03:35:13.396Z,5.93
2019-02-10T03:36:13.356Z,5.86
2019-02-10T03:37:13.344Z,5.92
2019-02-10T03:38:13.338Z,5.85
2019-02-10T03:39:13.337Z,5.81
2019-02-10T03:40:13.316Z,5.85
2019-02-10T03:41:13.314Z,5.81
2019-02-10T03:42:13.306Z,5.81
2019-02-10T03:43:13.283Z,5.83
2019-02-10T03:44:13.269Z,5.85
2019-02-10T03:45:13.257Z,5.86
2019-02-10T03:46:13.280Z,5.85
2019-02-10T03:47:13.242Z,5.82
2019-02-10T03:48:13.229Z,5.81
2019-02-10T03:49:13.223Z,5.77
2019-02-10T03:50:13.222Z,5.83
2019-02-10T03:51:13.212Z,5.85
2019-02-10T03:52:13.190Z,5.85
2019-02-10T03:53:13.177Z,5.82
2019-02-10T03:54:13.166Z,5.78
2019-02-10T03:55:13.159Z,5.81
2019-02-10T03:56:13.160Z,5.83
2019-02-10T03:57:13.133Z,5.73
2019-02-10T03:58:13.122Z,5.73
2019-02-10T03:59:13.127Z,5.71
2019-02-10T04:00:13.098Z,5.77
2019-02-10T04:01:13.104Z,5.75
2019-02-10T04:02:13.081Z,5.73
2019-02-10T04:03:13.068Z,5.74
2019-02-10T04:04:13.060Z,5.81
2019-02-10T04:05:13.051Z,5.70
2019-02-10T04:06:13.047Z,5.71
2019-02-10T04:07:13.025Z,5.71
2019-02-10T04:08:13.019Z,5.74
2019-02-10T04:09:13.018Z,5.74
2019-02-10T04:10:12.996Z,5.74
2019-02-10T04:11:12.999Z,5.81
2019-02-10T04:12:12.976Z,5.68
2019-02-10T04:13:12.966Z,5.70
2019-02-10T04:14:12.953Z,5.67
2019-02-10T04:15:12.943Z,5.68
2019-02-10T04:16:12.951Z,5.70
2019-02-10T04:17:12.922Z,5.66
2019-02-10T04:18:12.913Z,5.67
2019-02-10T04:19:12.946Z,5.74
2019-02-10T04:20:12.897Z,5.68
2019-02-10T04:21:12.892Z,5.67
2019-02-10T04:22:12.893Z,5.60
2019-02-10T04:23:12.862Z,5.66
2019-02-10T04:24:12.857Z,5.53
2019-02-10T04:25:12.838Z,5.56
2019-02-10T04:26:12.839Z,5.52
2019-02-10T04:27:12.816Z,5.49
2019-02-10T04:28:12.804Z,5.55
2019-02-10T04:29:12.795Z,5.48
2019-02-10T04:30:12.784Z,5.48
2019-02-10T04:31:12.802Z,5.53
2019-02-10T04:32:12.766Z,5.53
2019-02-10T04:33:12.755Z,5.57
2019-02-10T04:34:12.747Z,5.49
2019-02-10T04:35:12.734Z,5.53
2019-02-10T04:36:12.735Z,5.53
2019-02-10T04:37:12.712Z,5.56
2019-02-10T04:38:12.699Z,5.55
2019-02-10T04:39:12.689Z,5.57
2019-02-10T04:40:12.680Z,5.49
2019-02-10T04:41:12.684Z,5.57
2019-02-10T04:42:12.661Z,5.59
2019-02-10T04:43:12.651Z,5.64
2019-02-10T04:44:12.638Z,5.63
2019-02-10T04:45:12.624Z,5.64
2019-02-10T04:46:12.629Z,5.63
2019-02-10T04:47:12.663Z,5.63
2019-02-10T04:48:12.597Z,5.57
2019-02-10T04:49:12.587Z,5.56
2019-02-10T04:50:12.579Z,5.53
2019-02-10T04:51:12.576Z,5.46
2019-02-10T04:52:12.553Z,5.55
2019-02-10T04:53:12.544Z,5.53
2019-02-10T04:54:12.539Z,5.55
2019-02-10T04:55:12.522Z,5.59
2019-02-10T04:56:12.519Z,5.41
2019-02-10T04:57:12.501Z,5.49
2019-02-10T04:58:12.490Z,5.48
2019-02-10T04:59:12.496Z,5.53
2019-02-10T05:00:12.469Z,5.52
2019-02-10T05:01:12.475Z,5.43
2019-02-10T05:02:12.446Z,5.46
2019-02-10T05:03:12.442Z,5.49
2019-02-10T05:04:12.430Z,5.50
2019-02-10T05:05:12.415Z,5.57
2019-02-10T05:06:12.415Z,5.50
2019-02-10T05:07:12.405Z,5.55
2019-02-10T05:08:12.388Z,5.53
2019-02-10T05:09:12.375Z,5.52
2019-02-10T05:10:12.361Z,5.52
2019-02-10T05:11:12.362Z,5.46
2019-02-10T05:12:12.345Z,5.49
2019-02-10T05:13:12.328Z,5.48
2019-02-10T05:14:12.319Z,5.50
2019-02-10T05:15:12.308Z,5.45
2019-02-10T05:16:12.312Z,5.50
2019-02-10T05:17:12.288Z,5.53
2019-02-10T05:18:12.284Z,5.48
2019-02-10T05:19:12.268Z,5.48
2019-02-10T05:20:12.263Z,5.50
2019-02-10T05:21:12.246Z,5.43
2019-02-10T05:22:12.248Z,5.46
2019-02-10T05:23:12.227Z,5.50
2019-02-10T05:24:12.219Z,5.46
2019-02-10T05:25:12.201Z,5.48
2019-02-10T05:26:12.201Z,5.40
2019-02-10T05:27:12.197Z,5.45
2019-02-10T05:28:12.175Z,5.43
2019-02-10T05:29:12.164Z,5.46
2019-02-10T05:30:12.152Z,5.45
2019-02-10T05:31:12.147Z,5.48
2019-02-10T05:32:12.147Z,5.60
2019-02-10T05:33:12.122Z,5.55
2019-02-10T05:34:12.109Z,5.57
2019-02-10T05:35:12.102Z,5.66
2019-02-10T05:36:12.090Z,5.66
2019-02-10T05:37:12.088Z,5.63
2019-02-10T05:38:12.069Z,5.68
2019-02-10T05:39:12.057Z,5.66
2019-02-10T05:40:12.048Z,5.59
2019-02-10T05:41:12.034Z,5.57
2019-02-10T05:42:12.058Z,5.56
2019-02-10T05:43:12.015Z,5.66
2019-02-10T05:44:12.002Z,5.60
2019-02-10T05:45:11.993Z,5.64
2019-02-10T05:46:11.983Z,5.68
2019-02-10T05:47:11.984Z,5.75
2019-02-10T05:48:11.962Z,5.70
2019-02-10T05:49:11.954Z,5.75
2019-02-10T05:50:11.945Z,5.66
2019-02-10T05:51:11.929Z,5.74
2019-02-10T05:52:11.935Z,5.81
2019-02-10T05:53:11.911Z,5.68
2019-02-10T05:54:11.898Z,5.74
2019-02-10T05:55:11.888Z,5.74
2019-02-10T05:56:11.875Z,5.70
2019-02-10T05:57:11.876Z,5.75
2019-02-10T05:58:11.856Z,5.74
2019-02-10T05:59:11.848Z,5.75
2019-02-10T06:00:11.836Z,5.74
2019-02-10T06:01:11.831Z,5.75
2019-02-10T06:02:11.828Z,5.77
2019-02-10T06:03:11.808Z,5.68
2019-02-10T06:04:11.795Z,5.73
2019-02-10T06:05:11.787Z,5.74
2019-02-10T06:06:11.772Z,5.71
2019-02-10T06:07:11.776Z,5.78
2019-02-10T06:08:13.625Z,5.70
2019-02-10T06:09:11.743Z,5.74
2019-02-10T06:10:11.734Z,5.74
2019-02-10T06:11:11.728Z,5.71
2019-02-10T06:12:11.722Z,5.82
2019-02-10T06:13:11.697Z,5.81
2019-02-10T06:14:11.686Z,5.73
2019-02-10T06:15:11.678Z,5.75
2019-02-10T06:16:11.668Z,5.73
2019-02-10T06:17:11.675Z,5.73
2019-02-10T06:18:11.649Z,5.68
2019-02-10T06:19:11.636Z,5.75
2019-02-10T06:20:11.628Z,5.74
2019-02-10T06:21:11.614Z,5.85
2019-02-10T06:22:11.615Z,5.89
2019-02-10T06:23:11.598Z,5.81
2019-02-10T06:24:11.586Z,5.91
2019-02-10T06:25:11.572Z,5.88
2019-02-10T06:26:11.560Z,5.82
2019-02-10T06:27:11.573Z,5.88
2019-02-10T06:28:11.550Z,5.93
2019-02-10T06:29:11.532Z,5.96
2019-02-10T06:30:11.521Z,5.95
2019-02-10T06:31:11.531Z,5.96
2019-02-10T06:32:11.511Z,5.96
2019-02-10T06:33:11.489Z,5.93
2019-02-10T06:34:11.490Z,5.95
2019-02-10T06:35:11.477Z,6.01
2019-02-10T06:36:11.464Z,6.03
2019-02-10T06:37:11.458Z,5.96
2019-02-10T06:38:11.448Z,6.06
2019-02-10T06:39:11.425Z,6.06
2019-02-10T06:40:11.426Z,6.01
2019-02-10T06:41:11.401Z,6.13
2019-02-10T06:42:11.404Z,6.01
2019-02-10T06:43:11.381Z,6.09
2019-02-10T06:44:11.375Z,6.06
2019-02-10T06:45:11.363Z,6.01
2019-02-10T06:46:11.354Z,6.03
2019-02-10T06:47:11.353Z,6.06
2019-02-10T06:48:11.331Z,6.11
2019-02-10T06:49:11.321Z,6.09
2019-02-10T06:50:11.312Z,6.11
2019-02-10T06:51:11.304Z,6.03
2019-02-10T06:52:11.592Z,6.13
2019-02-10T06:53:11.276Z,6.14
2019-02-10T06:54:11.267Z,6.18
2019-02-10T06:55:11.257Z,6.16
2019-02-10T06:56:11.246Z,6.16
2019-02-10T06:57:11.234Z,6.14
2019-02-10T06:58:11.237Z,6.13
2019-02-10T06:59:11.213Z,6.14
2019-02-10T07:00:11.202Z,6.14
2019-02-10T07:01:11.197Z,6.28
2019-02-10T07:02:11.180Z,6.21
2019-02-10T07:03:11.189Z,6.36
2019-02-10T07:04:11.159Z,6.29
2019-02-10T07:05:11.153Z,6.30
2019-02-10T07:06:11.140Z,6.26
2019-02-10T07:07:11.131Z,6.35
2019-02-10T07:08:11.137Z,6.26
2019-02-10T07:09:11.110Z,6.35
2019-02-10T07:10:11.098Z,6.36
2019-02-10T07:11:11.099Z,6.38
2019-02-10T07:12:11.079Z,6.41
2019-02-10T07:13:11.082Z,6.40
2019-02-10T07:14:11.058Z,6.41
2019-02-10T07:15:11.105Z,6.41
2019-02-10T07:16:11.075Z,6.51
2019-02-10T07:17:11.031Z,6.54
2019-02-10T07:18:11.026Z,6.48
2019-02-10T07:19:11.016Z,6.48
2019-02-10T07:20:11.000Z,6.61
2019-02-10T07:21:10.987Z,6.61
2019-02-10T07:22:10.974Z,6.62
2019-02-10T07:23:10.981Z,6.59
2019-02-10T07:24:10.949Z,6.58
2019-02-10T07:25:10.940Z,6.63
2019-02-10T07:26:10.933Z,6.69
2019-02-10T07:27:10.917Z,6.69
2019-02-10T07:28:10.916Z,6.69
2019-02-10T07:29:10.959Z,6.68
2019-02-10T07:30:10.891Z,6.80
2019-02-10T07:31:10.874Z,6.80
2019-02-10T07:32:10.869Z,6.80
2019-02-10T07:33:10.877Z,6.81
2019-02-10T07:34:10.843Z,6.79
2019-02-10T07:35:11.561Z,6.80
2019-02-10T07:36:10.822Z,6.77
2019-02-10T07:37:10.816Z,6.83
2019-02-10T07:38:10.815Z,6.84
2019-02-10T07:39:10.789Z,6.80
2019-02-10T07:40:10.781Z,6.84
2019-02-10T07:41:10.766Z,6.80
2019-02-10T07:42:10.756Z,6.86
2019-02-10T07:43:10.767Z,6.79
2019-02-10T07:44:10.746Z,6.83
2019-02-10T07:45:10.722Z,6.84
2019-02-10T07:46:10.714Z,6.81
2019-02-10T07:47:10.701Z,6.80
2019-02-10T07:48:10.705Z,6.84
2019-02-10T07:49:10.688Z,6.76
2019-02-10T07:50:10.679Z,6.77
2019-02-10T07:51:10.667Z,6.89
2019-02-10T07:52:10.651Z,6.84
2019-02-10T07:53:10.636Z,6.80
2019-02-10T07:54:10.641Z,6.86
2019-02-10T07:55:10.615Z,6.87
2019-02-10T07:56:10.623Z,6.90
2019-02-10T07:57:10.597Z,6.87
2019-02-10T07:58:10.585Z,6.90
2019-02-10T07:59:10.590Z,6.98
2019-02-10T08:00:10.562Z,7.01
2019-02-10T08:01:10.555Z,6.94
2019-02-10T08:02:10.542Z,6.98
2019-02-10T08:03:10.530Z,7.01
2019-02-10T08:04:10.534Z,7.05
2019-02-10T08:05:10.507Z,7.04
2019-02-10T08:06:10.501Z,7.08
2019-02-10T08:07:10.493Z,7.12
2019-02-10T08:08:10.479Z,7.04
2019-02-10T08:09:10.476Z,7.19
2019-02-10T08:10:10.453Z,7.20
2019-02-10T08:11:10.442Z,7.20
2019-02-10T08:12:10.437Z,7.20
2019-02-10T08:13:10.433Z,7.20
2019-02-10T08:14:10.436Z,7.24
2019-02-10T08:15:10.402Z,7.23
2019-02-10T08:16:10.389Z,7.24
2019-02-10T08:17:11.064Z,7.20
2019-02-10T08:18:10.368Z,7.23
2019-02-10T08:19:10.382Z,7.16
2019-02-10T08:20:10.345Z,7.09
2019-02-10T08:21:11.209Z,7.23
2019-02-10T08:22:10.324Z,7.19
2019-02-10T08:23:10.316Z,7.22
2019-02-10T08:24:10.337Z,7.16
2019-02-10T08:25:10.294Z,7.20
2019-02-10T08:26:10.282Z,7.27
2019-02-10T08:27:10.279Z,7.31
2019-02-10T08:28:10.262Z,7.29
2019-02-10T08:29:10.263Z,7.22
2019-02-10T08:30:10.240Z,7.27
2019-02-10T08:31:10.224Z,7.19
2019-02-10T08:32:10.215Z,7.19
2019-02-10T08:33:10.206Z,7.19
2019-02-10T08:34:10.204Z,7.17
2019-02-10T08:35:10.184Z,7.22
2019-02-10T08:36:10.178Z,7.26
2019-02-10T08:37:10.162Z,7.31
2019-02-10T08:38:10.152Z,7.34
2019-02-10T08:39:10.174Z,7.29
2019-02-10T08:40:10.128Z,7.19
2019-02-10T08:41:10.126Z,7.22
2019-02-10T08:42:10.109Z,7.22
2019-02-10T08:43:10.100Z,7.20
2019-02-10T08:44:10.086Z,7.22
2019-02-10T08:45:10.088Z,7.16
2019-02-10T08:46:10.069Z,7.19
2019-02-10T08:47:10.053Z,7.12
2019-02-10T08:48:10.043Z,7.17
2019-02-10T08:49:10.032Z,7.07
2019-02-10T08:50:10.030Z,7.05
2019-02-10T08:51:10.021Z,7.07
2019-02-10T08:52:10.000Z,7.08
2019-02-10T08:53:09.997Z,7.09
2019-02-10T08:54:09.977Z,7.08
2019-02-10T08:55:09.980Z,7.08
2019-02-10T08:56:09.954Z,7.08
2019-02-10T08:57:09.945Z,7.08
2019-02-10T08:58:09.931Z,7.04
2019-02-10T08:59:09.929Z,7.07
2019-02-10T09:00:09.924Z,6.90
2019-02-10T09:01:09.902Z,6.97
2019-02-10T09:02:09.893Z,6.90
2019-02-10T09:03:10.865Z,6.87
2019-02-10T09:04:09.870Z,6.79
2019-02-10T09:05:09.870Z,6.79
2019-02-10T09:06:09.846Z,6.83
2019-02-10T09:07:09.836Z,6.79
2019-02-10T09:08:09.829Z,6.79
2019-02-10T09:09:09.813Z,6.81
2019-02-10T09:10:09.814Z,6.73
2019-02-10T09:11:09.791Z,6.61
2019-02-10T09:12:09.786Z,6.58
2019-02-10T09:13:09.770Z,6.59
2019-02-10T09:14:09.763Z,6.62
2019-02-10T09:15:09.773Z,6.63
2019-02-10T09:16:09.742Z,6.68
2019-02-10T09:17:09.727Z,6.54
2019-02-10T09:18:09.714Z,6.44
2019-02-10T09:19:09.704Z,6.50
2019-02-10T09:20:09.708Z,6.41
2019-02-10T09:21:09.687Z,6.25
2019-02-10T09:22:09.681Z,6.33
2019-02-10T09:23:09.660Z,6.32
2019-02-10T09:24:09.651Z,6.29
2019-02-10T09:25:09.653Z,6.26
2019-02-10T09:26:09.628Z,6.28
2019-02-10T09:27:09.618Z,6.26
2019-02-10T09:28:09.611Z,6.21
2019-02-10T09:29:09.597Z,6.19
2019-02-10T09:30:09.603Z,6.28
2019-02-10T09:31:09.575Z,6.25
2019-02-10T09:32:09.565Z,6.26
2019-02-10T09:33:09.575Z,6.19
2019-02-10T09:34:09.545Z,6.14
2019-02-10T09:35:09.545Z,6.16
2019-02-10T09:36:09.523Z,6.11
2019-02-10T09:37:09.514Z,6.14
2019-02-10T09:38:09.503Z,6.11
2019-02-10T09:39:10.867Z,6.10
2019-02-10T09:40:09.491Z,6.07
2019-02-10T09:41:09.470Z,6.01
2019-02-10T09:42:09.475Z,6.01
2019-02-10T09:43:09.465Z,5.98
2019-02-10T09:44:09.439Z,5.83
2019-02-10T09:45:09.481Z,5.88
2019-02-10T09:46:09.417Z,5.91
2019-02-10T09:47:09.405Z,5.83
2019-02-10T09:48:09.403Z,5.82
2019-02-10T09:49:09.390Z,5.83
2019-02-10T09:50:11.201Z,5.82
2019-02-10T09:51:09.379Z,5.82
2019-02-10T09:52:09.353Z,5.86
2019-02-10T09:53:09.344Z,5.85
2019-02-10T09:54:09.412Z,5.88
2019-02-10T09:55:09.325Z,5.77
2019-02-10T09:56:10.595Z,5.81
2019-02-10T09:57:09.304Z,5.88
2019-02-10T09:58:09.292Z,5.83
2019-02-10T09:59:09.282Z,5.89
2019-02-10T10:00:09.272Z,5.78
2019-02-10T10:01:09.273Z,5.82
2019-02-10T10:02:09.249Z,5.83
2019-02-10T10:03:09.239Z,5.89
2019-02-10T10:04:09.227Z,5.96
2019-02-10T10:05:09.219Z,5.96
2019-02-10T10:06:09.226Z,5.95
2019-02-10T10:07:09.201Z,5.96
2019-02-10T10:08:09.188Z,6.00
2019-02-10T10:09:09.175Z,5.98
2019-02-10T10:10:09.165Z,6.01
2019-02-10T10:11:09.162Z,6.03
2019-02-10T10:12:09.148Z,6.01
2019-02-10T10:13:09.136Z,6.07
2019-02-10T10:14:09.130Z,6.06
2019-02-10T10:15:09.113Z,6.04
2019-02-10T10:16:09.111Z,6.06
2019-02-10T10:17:09.096Z,6.14
2019-02-10T10:18:09.078Z,6.11
2019-02-10T10:19:09.073Z,6.16
2019-02-10T10:20:09.068Z,6.13
2019-02-10T10:21:09.123Z,6.14
2019-02-10T10:22:09.037Z,6.11
2019-02-10T10:23:09.027Z,6.13
2019-02-10T10:24:09.020Z,6.21
2019-02-10T10:25:09.007Z,6.10
2019-02-10T10:26:09.010Z,6.21
2019-02-10T10:27:08.989Z,6.32
2019-02-10T10:28:08.974Z,6.28
2019-02-10T10:29:08.967Z,6.28
2019-02-10T10:30:08.952Z,6.25
2019-02-10T10:31:08.978Z,6.29
2019-02-10T10:32:08.968Z,6.18
2019-02-10T10:33:08.944Z,6.28
2019-02-10T10:34:08.915Z,6.26
2019-02-10T10:35:08.907Z,6.32
2019-02-10T10:36:08.923Z,6.22
2019-02-10T10:37:08.881Z,6.26
2019-02-10T10:38:08.873Z,6.28
2019-02-10T10:39:08.859Z,6.26
2019-02-10T10:40:08.917Z,6.19
2019-02-10T10:41:08.866Z,6.30
2019-02-10T10:42:08.825Z,6.30
2019-02-10T10:43:08.818Z,6.22
2019-02-10T10:44:08.809Z,6.29
2019-02-10T10:45:08.794Z,6.32
2019-02-10T10:46:08.794Z,6.40
2019-02-10T10:47:08.777Z,6.32
2019-02-10T10:48:08.765Z,6.30
2019-02-10T10:49:08.793Z,6.35
2019-02-10T10:50:08.742Z,6.36
2019-02-10T10:51:08.744Z,6.35
2019-02-10T10:52:08.719Z,6.36
2019-02-10T10:53:08.709Z,6.38
2019-02-10T10:54:08.708Z,6.32
2019-02-10T10:55:08.693Z,6.33
2019-02-10T10:56:08.690Z,6.35
2019-02-10T10:57:08.666Z,6.35
2019-02-10T10:58:08.656Z,6.50
2019-02-10T10:59:08.646Z,6.35
2019-02-10T11:00:08.637Z,6.38
2019-02-10T11:01:08.638Z,6.40
2019-02-10T11:02:08.615Z,6.40
2019-02-10T11:03:08.606Z,6.40
2019-02-10T11:04:08.594Z,6.48
2019-02-10T11:05:08.580Z,6.38
2019-02-10T11:06:08.583Z,6.41
2019-02-10T11:07:08.563Z,6.51
2019-02-10T11:08:08.549Z,6.50
2019-02-10T11:09:08.540Z,6.47
2019-02-10T11:10:08.530Z,6.47
2019-02-10T11:11:08.530Z,6.54
2019-02-10T11:12:08.510Z,6.54
2019-02-10T11:13:08.495Z,6.56
2019-02-10T11:14:08.487Z,6.61
2019-02-10T11:15:08.472Z,6.62
2019-02-10T11:16:08.479Z,6.63
2019-02-10T11:17:10.601Z,6.73
2019-02-10T11:18:08.443Z,6.81
2019-02-10T11:19:08.430Z,6.80
2019-02-10T11:20:08.420Z,6.81
2019-02-10T11:21:08.422Z,6.80
2019-02-10T11:22:08.397Z,6.90
2019-02-10T11:23:08.404Z,6.87
2019-02-10T11:24:08.374Z,6.95
2019-02-10T11:25:08.368Z,6.87
2019-02-10T11:26:08.411Z,6.98
2019-02-10T11:27:08.343Z,7.01
2019-02-10T11:28:08.337Z,7.01
2019-02-10T11:29:08.389Z,7.07
2019-02-10T11:30:08.311Z,7.07
2019-02-10T11:31:08.303Z,7.08
2019-02-10T11:32:08.300Z,7.05
2019-02-10T11:33:08.285Z,7.08
2019-02-10T11:34:08.269Z,7.22
2019-02-10T11:35:09.060Z,7.24
2019-02-10T11:36:08.246Z,7.22
2019-02-10T11:37:08.280Z,7.20
2019-02-10T11:38:08.230Z,7.23
2019-02-10T11:39:08.223Z,7.16
2019-02-10T11:40:09.098Z,7.16
2019-02-10T11:41:08.192Z,7.29
2019-02-10T11:42:08.209Z,7.27
2019-02-10T11:43:08.194Z,7.34
2019-02-10T11:44:08.160Z,7.32
2019-02-10T11:45:08.155Z,7.37
2019-02-10T11:46:08.142Z,7.34
2019-02-10T11:47:08.141Z,7.24
2019-02-10T11:48:08.117Z,7.31
2019-02-10T11:49:08.107Z,7.23
2019-02-10T11:50:08.108Z,7.37
2019-02-10T11:51:08.096Z,7.40
2019-02-10T11:52:08.086Z,7.47
2019-02-10T11:53:08.064Z,7.45
2019-02-10T11:54:08.051Z,7.37
2019-02-10T11:55:08.044Z,7.45
2019-02-10T11:56:08.040Z,7.40
2019-02-10T11:57:08.038Z,7.45
2019-02-10T11:58:08.010Z,7.52
2019-02-10T11:59:08.001Z,7.49
2019-02-10T12:00:07.989Z,7.53
2019-02-10T12:01:07.975Z,7.45
2019-02-10T12:02:07.981Z,7.45
2019-02-10T12:03:07.954Z,7.53
2019-02-10T12:04:07.961Z,7.50
2019-02-10T12:05:07.939Z,7.56
2019-02-10T12:06:07.922Z,7.56
2019-02-10T12:07:07.924Z,7.63
2019-02-10T12:08:07.909Z,7.63
2019-02-10T12:09:07.893Z,7.71
2019-02-10T12:10:07.883Z,7.59
2019-02-10T12:11:07.870Z,7.72
2019-02-10T12:12:07.870Z,7.72
2019-02-10T12:13:07.853Z,7.72
2019-02-10T12:14:07.841Z,7.74
2019-02-10T12:15:07.829Z,7.74
2019-02-10T12:16:07.817Z,7.77
2019-02-10T12:17:07.876Z,7.75
2019-02-10T12:18:07.810Z,7.69
2019-02-10T12:19:07.788Z,7.78
2019-02-10T12:20:07.776Z,7.78
2019-02-10T12:21:07.763Z,7.78
2019-02-10T12:22:07.767Z,7.75
2019-02-10T12:23:07.743Z,7.75
2019-02-10T12:24:07.732Z,7.75
2019-02-10T12:25:07.730Z,7.72
2019-02-10T12:26:07.711Z,7.74
2019-02-10T12:27:07.757Z,7.79
2019-02-10T12:28:07.690Z,7.82
2019-02-10T12:29:07.679Z,7.92
2019-02-10T12:30:07.671Z,7.89
2019-02-10T12:31:07.664Z,7.82
2019-02-10T12:32:07.650Z,7.90
2019-02-10T12:33:07.658Z,7.89
2019-02-10T12:34:07.641Z,7.87
2019-02-10T12:35:07.617Z,7.96
2019-02-10T12:36:07.604Z,7.90
2019-02-10T12:37:07.595Z,7.93
2019-02-10T12:38:07.591Z,7.90
2019-02-10T12:39:07.576Z,7.87
2019-02-10T12:40:07.564Z,7.90
2019-02-10T12:41:07.553Z,7.99
2019-02-10T12:42:07.540Z,7.85
2019-02-10T12:43:07.550Z,7.94
2019-02-10T12:44:07.544Z,7.92
2019-02-10T12:45:07.513Z,7.93
2019-02-10T12:46:07.494Z,7.87
2019-02-10T12:47:07.487Z,7.94
2019-02-10T12:48:07.486Z,7.99
2019-02-10T12:49:07.465Z,7.97
2019-02-10T12:50:07.455Z,8.02
2019-02-10T12:51:07.447Z,7.92
2019-02-10T12:52:07.433Z,7.93
2019-02-10T12:53:07.435Z,7.99
2019-02-10T12:54:07.410Z,7.96
2019-02-10T12:55:07.419Z,7.99
2019-02-10T12:56:07.394Z,8.04
2019-02-10T12:57:07.383Z,8.00
2019-02-10T12:58:07.392Z,7.99
2019-02-10T12:59:07.361Z,8.04
2019-02-10T13:00:07.346Z,7.99
2019-02-10T13:01:07.339Z,8.00
2019-02-10T13:02:07.332Z,8.03
2019-02-10T13:03:07.362Z,8.07
2019-02-10T13:04:07.312Z,8.03
2019-02-10T13:05:07.320Z,8.03
2019-02-10T13:06:07.293Z,8.07
2019-02-10T13:07:07.273Z,8.08
2019-02-10T13:08:07.283Z,8.08
2019-02-10T13:09:07.256Z,8.14
2019-02-10T13:10:08.414Z,8.12
2019-02-10T13:11:07.230Z,8.14
2019-02-10T13:12:07.222Z,8.15
2019-02-10T13:13:07.238Z,8.14
2019-02-10T13:14:07.210Z,8.12
2019-02-10T13:15:07.196Z,8.15
2019-02-10T13:16:07.178Z,8.14
2019-02-10T13:17:07.233Z,8.18
2019-02-10T13:18:07.179Z,8.18